Time;durP1;ratioP1;P1;durP2;ratioP2;P2;SDS_P1;SDS_P2;PMS_P1;PMS_P2;Temp;Humidity;BMP_temperature;BMP_pressure;BME280_temperature;BME280_humidity;BME280_pressure;Samples;Min_cycle;Max_cycle;Signal;HPM_P1;HPM_P2
2022/09/29 00:00:28;;;;;;;9.32;8.50;;;7.40;99.90;;;;;;5077345;28;20032;-69
2022/09/29 00:02:53;;;;;;;11.25;9.68;;;7.30;99.90;;;;;;5079781;28;20049;-70
2022/09/29 00:05:19;;;;;;;9.50;8.60;;;7.30;99.90;;;;;;5079547;28;20131;-70
2022/09/29 00:07:45;;;;;;;10.68;9.77;;;7.30;99.90;;;;;;5078856;28;20540;-71
2022/09/29 00:10:11;;;;;;;12.60;9.65;;;7.30;99.90;;;;;;5059907;28;20097;-70
2022/09/29 00:12:36;;;;;;;11.05;9.95;;;7.30;99.90;;;;;;5080758;28;20120;-71
2022/09/29 00:15:03;;;;;;;11.45;10.45;;;7.30;99.90;;;;;;5078562;28;20372;-71
2022/09/29 00:17:28;;;;;;;11.38;10.10;;;7.20;99.90;;;;;;5079268;28;20040;-71
2022/09/29 00:19:54;;;;;;;11.80;10.60;;;7.20;99.90;;;;;;5078099;28;20040;-70
2022/09/29 00:22:20;;;;;;;11.38;10.35;;;7.30;99.90;;;;;;5063358;28;20475;-69
2022/09/29 00:24:48;;;;;;;11.93;10.73;;;7.20;99.90;;;;;;5079235;28;20498;-70
2022/09/29 00:27:15;;;;;;;11.73;10.65;;;7.20;99.90;;;;;;5080477;28;20055;-72
2022/09/29 00:29:41;;;;;;;11.57;10.48;;;7.20;99.90;;;;;;5080915;28;20414;-70
2022/09/29 00:32:07;;;;;;;11.75;10.50;;;7.20;99.90;;;;;;5076509;28;20051;-71
2022/09/29 00:34:32;;;;;;;11.80;10.60;;;7.20;99.90;;;;;;5081187;28;20395;-71
2022/09/29 00:36:58;;;;;;;12.30;11.30;;;7.10;99.90;;;;;;5079109;28;20479;-72
2022/09/29 00:39:25;;;;;;;11.13;10.00;;;;;;;;;;5079396;28;20039;-71
2022/09/29 00:41:51;;;;;;;11.32;10.30;;;7.10;99.90;;;;;;5076424;28;20052;-70
2022/09/29 00:44:18;;;;;;;11.48;10.48;;;7.10;99.90;;;;;;5079034;28;20510;-70
2022/09/29 00:46:48;;;;;;;12.73;11.52;;;7.10;99.90;;;;;;5082355;28;20122;-69
2022/09/29 00:49:42;;;;;;;14.35;11.45;;;7.10;99.90;;;;;;5082528;28;20047;-70
2022/09/29 00:52:19;;;;;;;12.15;11.05;;;7.00;99.90;;;;;;5082251;28;20040;-70
2022/09/29 00:54:54;;;;;;;13.13;11.93;;;7.00;99.90;;;;;;5080057;28;20044;-71
2022/09/29 00:57:27;;;;;;;12.45;11.25;;;7.00;99.90;;;;;;5079327;28;20039;-71
2022/09/29 00:59:59;;;;;;;13.02;11.80;;;6.90;99.90;;;;;;5076917;28;20059;-69
2022/09/29 01:02:26;;;;;;;12.75;11.65;;;6.90;99.90;;;;;;5075546;28;20121;-71
2022/09/29 01:04:54;;;;;;;12.27;11.07;;;6.80;99.90;;;;;;5079478;28;20071;-69
2022/09/29 01:07:24;;;;;;;12.23;11.02;;;6.70;99.90;;;;;;5078206;28;20040;-69
2022/09/29 01:09:52;;;;;;;12.57;11.48;;;6.70;99.90;;;;;;5079344;28;20044;-70
2022/09/29 01:12:19;;;;;;;13.57;12.30;;;6.70;99.90;;;;;;5078848;28;20074;-69
2022/09/29 01:14:46;;;;;;;12.98;11.88;;;6.70;99.90;;;;;;5079035;28;20751;-69
2022/09/29 01:17:12;;;;;;;12.90;11.77;;;6.70;99.90;;;;;;5075885;28;20078;-70
2022/09/29 01:20:01;;;;;;;16.17;14.52;;;6.70;99.90;;;;;;5084412;28;20318;-70
2022/09/29 01:22:52;;;;;;;15.63;13.98;;;6.60;99.90;;;;;;5076414;28;20046;-72
2022/09/29 01:25:35;;;;;;;16.45;14.88;;;6.70;99.90;;;;;;5080227;28;20055;-72
2022/09/29 01:28:19;;;;;;;15.35;13.88;;;6.70;99.90;;;;;;5080475;28;20048;-73
2022/09/29 01:31:21;;;;;;;15.73;14.23;;;6.70;99.90;;;;;;5080826;28;20067;-72
2022/09/29 01:34:01;;;;;;;18.27;15.63;;;6.60;99.90;;;;;;5080603;28;20040;-71
2022/09/29 01:36:55;;;;;;;17.73;15.68;;;6.60;99.90;;;;;;5080296;28;20131;-72
2022/09/29 01:39:32;;;;;;;19.73;17.73;;;6.60;99.90;;;;;;5078825;28;20072;-73
2022/09/29 01:42:16;;;;;;;18.40;16.60;;;6.60;99.90;;;;;;5078265;28;20086;-71
2022/09/29 01:44:55;;;;;;;19.38;17.42;;;6.60;99.90;;;;;;5082088;28;20062;-71
2022/09/29 01:47:55;;;;;;;19.55;17.73;;;6.60;99.90;;;;;;5078288;28;20044;-70
2022/09/29 01:50:28;;;;;;;21.10;18.90;;;6.60;99.90;;;;;;5066081;28;20106;-70
2022/09/29 01:53:01;;;;;;;21.73;19.38;;;6.60;99.90;;;;;;5081040;28;20051;-70
2022/09/29 01:55:31;;;;;;;20.38;18.33;;;6.60;99.90;;;;;;5077656;28;20380;-70
2022/09/29 01:58:01;;;;;;;19.08;17.08;;;6.60;99.90;;;;;;5081191;28;20048;-72
2022/09/29 02:00:31;;;;;;;20.75;18.63;;;6.50;99.90;;;;;;5061823;28;21557;-70
2022/09/29 02:03:08;;;;;;;21.42;19.30;;;6.50;99.90;;;;;;5082255;28;20032;-70
2022/09/29 02:05:49;;;;;;;19.23;17.33;;;6.50;99.90;;;;;;5083380;28;20051;-70
2022/09/29 02:08:39;;;;;;;20.02;17.92;;;6.40;99.90;;;;;;5087757;28;20044;-70
2022/09/29 02:11:07;;;;;;;20.25;18.25;;;6.40;99.90;;;;;;5080490;28;20040;-70
2022/09/29 02:13:53;;;;;;;19.92;17.67;;;6.40;99.90;;;;;;5080402;28;20055;-70
2022/09/29 02:16:28;;;;;;;21.75;19.55;;;6.40;99.90;;;;;;5079660;28;20395;-71
2022/09/29 02:19:06;;;;;;;17.65;15.95;;;6.40;99.90;;;;;;5080583;28;20422;-70
2022/09/29 02:21:32;;;;;;;21.73;19.42;;;6.30;99.90;;;;;;5079447;28;20048;-70
2022/09/29 02:23:58;;;;;;;19.70;17.80;;;6.30;99.90;;;;;;5079269;28;20048;-70
2022/09/29 02:26:28;;;;;;;17.92;16.25;;;6.30;99.90;;;;;;5079139;28;20540;-70
2022/09/29 02:28:54;;;;;;;19.85;18.00;;;6.30;99.90;;;;;;5064121;28;20059;-70
2022/09/29 02:31:20;;;;;;;19.95;18.05;;;6.20;99.90;;;;;;5061454;28;20048;-70
2022/09/29 02:33:46;;;;;;;23.65;21.15;;;6.20;99.90;;;;;;5080010;28;20040;-68
2022/09/29 02:36:48;;;;;;;19.80;17.90;;;6.20;99.90;;;;;;5079165;28;20134;-69
2022/09/29 02:39:42;;;;;;;22.27;20.05;;;6.20;99.90;;;;;;5082704;28;20509;-70
2022/09/29 02:42:32;;;;;;;20.88;18.77;;;6.20;99.90;;;;;;5066090;28;20093;-69
2022/09/29 02:45:10;;;;;;;21.95;19.65;;;6.20;99.90;;;;;;5079119;28;20052;-71
2022/09/29 02:48:02;;;;;;;;;;;6.20;99.90;;;;;;5084833;28;20982;-71
2022/09/29 02:50:56;;;;;;;16.95;15.25;;;6.10;99.90;;;;;;5083244;28;19956;-71
2022/09/29 02:53:24;;;;;;;17.75;16.05;;;6.10;99.90;;;;;;5084751;28;20047;-72
2022/09/29 02:56:34;;;;;;;19.27;17.33;;;6.10;99.90;;;;;;5085102;28;20036;-70
2022/09/29 02:59:10;;;;;;;16.85;15.05;;;6.00;99.90;;;;;;5082526;28;20040;-72
2022/09/29 03:01:52;;;;;;;18.02;16.23;;;5.90;99.90;;;;;;5083457;28;20079;-70
2022/09/29 03:04:20;;;;;;;17.88;16.13;;;5.90;99.90;;;;;;5087774;28;20083;-70
2022/09/29 03:06:46;;;;;;;16.00;14.50;;;5.80;99.90;;;;;;5088894;28;20036;-71
2022/09/29 03:09:13;;;;;;;17.13;15.50;;;5.80;99.90;;;;;;5087437;28;20127;-70
2022/09/29 03:11:39;;;;;;;15.52;13.93;;;5.80;99.90;;;;;;5070182;28;20054;-70
2022/09/29 03:14:05;;;;;;;16.40;14.80;;;5.80;99.90;;;;;;5087792;28;20518;-70
2022/09/29 03:16:32;;;;;;;18.88;16.92;;;5.70;99.90;;;;;;5089752;28;20089;-71
2022/09/29 03:18:58;;;;;;;16.67;14.98;;;5.70;99.90;;;;;;5089257;28;20045;-71
2022/09/29 03:21:23;;;;;;;18.02;16.25;;;5.60;99.90;;;;;;5067192;28;20105;-69
2022/09/29 03:23:49;;;;;;;18.85;17.00;;;5.70;99.90;;;;;;5085462;28;20036;-70
2022/09/29 03:26:14;;;;;;;17.02;15.38;;;5.70;99.90;;;;;;5086827;28;20089;-69
2022/09/29 03:28:41;;;;;;;17.55;15.75;;;5.60;99.90;;;;;;5088860;28;20446;-69
2022/09/29 03:31:08;;;;;;;16.65;15.05;;;5.60;99.90;;;;;;5087961;28;20437;-69
2022/09/29 03:33:38;;;;;;;17.35;15.75;;;5.60;99.90;;;;;;5067788;28;20120;-69
2022/09/29 03:36:08;;;;;;;16.17;14.57;;;5.60;99.90;;;;;;5086397;28;20048;-70
2022/09/29 03:38:34;;;;;;;17.13;15.52;;;5.50;99.90;;;;;;5090709;28;20411;-70
2022/09/29 03:41:00;;;;;;;16.42;14.93;;;5.50;99.90;;;;;;5087968;28;20032;-71
2022/09/29 03:43:26;;;;;;;16.17;14.25;;;5.50;99.90;;;;;;5071737;28;20044;-72
2022/09/29 03:45:53;;;;;;;17.50;15.80;;;5.50;99.90;;;;;;5088354;28;20048;-71
2022/09/29 03:48:20;;;;;;;17.98;15.65;;;5.40;99.90;;;;;;5089747;28;20047;-72
2022/09/29 03:50:47;;;;;;;31.73;16.73;;;5.40;99.90;;;;;;5083590;28;20039;-72
2022/09/29 03:53:13;;;;;;;20.77;16.42;;;5.30;99.90;;;;;;5083622;28;20555;-71
2022/09/29 03:55:39;;;;;;;15.35;13.82;;;5.40;99.90;;;;;;5086480;28;20080;-71
2022/09/29 03:58:05;;;;;;;26.38;16.15;;;5.40;99.90;;;;;;5052998;28;20044;-72
2022/09/29 04:00:31;;;;;;;27.90;15.32;;;5.40;99.90;;;;;;5084792;28;20161;-71
2022/09/29 04:02:56;;;;;;;18.48;14.13;;;5.30;99.90;;;;;;5085773;28;20039;-71
2022/09/29 04:05:22;;;;;;;15.50;13.55;;;5.30;99.90;;;;;;5086558;28;20073;-72
2022/09/29 04:07:49;;;;;;;27.20;15.00;;;5.30;99.90;;;;;;5087231;28;20361;-71
2022/09/29 04:10:15;;;;;;;24.23;13.95;;;5.20;99.90;;;;;;5085523;28;20036;-71
2022/09/29 04:12:41;;;;;;;16.88;13.50;;;5.20;99.90;;;;;;5086574;28;20043;-72
2022/09/29 04:15:07;;;;;;;19.40;14.48;;;5.20;99.90;;;;;;5084505;28;20033;-72
2022/09/29 04:17:33;;;;;;;16.50;14.63;;;5.20;99.90;;;;;;5081339;28;20395;-70
2022/09/29 04:19:58;;;;;;;16.13;13.70;;;5.10;99.90;;;;;;5048690;28;20053;-72
2022/09/29 04:22:24;;;;;;;14.85;13.45;;;5.10;99.90;;;;;;5081806;28;20040;-70
2022/09/29 04:24:51;;;;;;;14.10;12.77;;;5.00;99.90;;;;;;5065926;28;20782;-71
2022/09/29 04:27:17;;;;;;;16.30;14.70;;;5.20;99.90;;;;;;5081333;28;20040;-71
2022/09/29 04:29:43;;;;;;;15.20;13.57;;;5.00;99.90;;;;;;5083198;28;20048;-71
2022/09/29 04:32:09;;;;;;;28.10;14.43;;;5.00;99.90;;;;;;5081901;28;20048;-71
2022/09/29 04:34:35;;;;;;;26.88;13.60;;;5.00;99.90;;;;;;5079789;28;20063;-70
2022/09/29 04:37:01;;;;;;;24.50;12.95;;;5.00;99.90;;;;;;5064906;28;20055;-70
2022/09/29 04:39:27;;;;;;;58.28;14.77;;;5.00;99.90;;;;;;5080651;28;20065;-69
2022/09/29 04:41:53;;;;;;;36.38;13.40;;;5.00;99.90;;;;;;5081974;28;20055;-73
2022/09/29 04:44:23;;;;;;;49.40;14.80;;;5.00;99.90;;;;;;5084192;28;20061;-72
2022/09/29 04:46:50;;;;;;;34.13;12.30;;;5.00;99.90;;;;;;5079813;28;22075;-72
2022/09/29 04:49:17;;;;;;;30.85;13.85;;;5.00;99.90;;;;;;5083247;28;20040;-73
2022/09/29 04:51:43;;;;;;;27.88;12.98;;;5.20;99.90;;;;;;5084282;28;21066;-73
2022/09/29 04:54:08;;;;;;;20.85;11.57;;;5.00;99.90;;;;;;5082953;28;20185;-72
2022/09/29 04:56:34;;;;;;;37.00;15.52;;;5.00;99.90;;;;;;5080667;28;20441;-73
2022/09/29 04:59:00;;;;;;;27.45;14.73;;;5.00;99.90;;;;;;5081239;28;20036;-73
2022/09/29 05:01:26;;;;;;;18.95;13.07;;;5.10;99.90;;;;;;5081118;28;20085;-74
2022/09/29 05:03:52;;;;;;;37.65;14.40;;;5.00;99.90;;;;;;5080109;28;20036;-73
2022/09/29 05:06:17;;;;;;;16.83;13.40;;;5.00;99.90;;;;;;5063753;28;20032;-73
2022/09/29 05:08:44;;;;;;;23.05;13.50;;;5.00;99.90;;;;;;5082629;28;20048;-73
2022/09/29 05:11:09;;;;;;;30.90;12.95;;;5.10;99.90;;;;;;5080187;28;20047;-72
2022/09/29 05:13:36;;;;;;;29.63;13.63;;;5.00;99.90;;;;;;5083027;28;20698;-73
2022/09/29 05:16:03;;;;;;;28.33;14.10;;;5.00;99.90;;;;;;5084797;28;20056;-74
2022/09/29 05:18:30;;;;;;;24.23;14.27;;;5.00;99.90;;;;;;5078727;28;20055;-76
2022/09/29 05:21:00;;;;;;;82.45;14.77;;;5.00;99.90;;;;;;5079976;28;20068;-74
2022/09/29 05:23:27;;;;;;;35.10;12.90;;;5.10;99.90;;;;;;5078755;28;20044;-74
2022/09/29 05:25:52;;;;;;;26.70;12.68;;;5.00;99.90;;;;;;5080444;28;20479;-73
2022/09/29 05:28:18;;;;;;;27.63;12.85;;;4.90;99.90;;;;;;5080432;28;20044;-73
2022/09/29 05:30:44;;;;;;;20.92;12.57;;;5.00;99.90;;;;;;5080740;28;20036;-75
2022/09/29 05:33:09;;;;;;;28.25;13.02;;;4.90;99.90;;;;;;5081133;28;20032;-74
2022/09/29 05:35:35;;;;;;;54.90;13.23;;;4.80;99.90;;;;;;5079615;28;20043;-71
2022/09/29 05:38:01;;;;;;;23.15;11.10;;;4.80;99.90;;;;;;5061884;28;20194;-73
2022/09/29 05:40:28;;;;;;;21.67;12.43;;;4.80;99.90;;;;;;5082339;28;20036;-74
2022/09/29 05:42:54;;;;;;;22.10;11.90;;;4.80;99.90;;;;;;5079705;28;20056;-72
2022/09/29 05:45:20;;;;;;;16.52;11.68;;;4.80;99.90;;;;;;5074292;28;20051;-71
2022/09/29 05:47:45;;;;;;;14.00;11.57;;;4.80;99.90;;;;;;5078894;28;20043;-71
2022/09/29 05:50:12;;;;;;;15.98;12.05;;;4.90;99.90;;;;;;5062165;28;20044;-73
2022/09/29 05:52:38;;;;;;;13.43;12.02;;;4.90;99.90;;;;;;5080876;28;20356;-70
2022/09/29 05:55:05;;;;;;;13.80;12.38;;;4.90;99.90;;;;;;5080114;28;20075;-72
2022/09/29 05:57:31;;;;;;;12.05;10.95;;;4.90;99.90;;;;;;5078086;28;20046;-72
2022/09/29 05:59:56;;;;;;;12.98;11.88;;;4.90;99.90;;;;;;5077944;28;20123;-72
2022/09/29 06:02:22;;;;;;;12.45;11.18;;;4.90;99.90;;;;;;5079218;28;20028;-73
2022/09/29 06:04:48;;;;;;;14.48;11.25;;;5.00;99.90;;;;;;5061148;28;20216;-74
2022/09/29 06:07:14;;;;;;;22.20;12.52;;;5.00;99.90;;;;;;5077178;28;20521;-73
2022/09/29 06:09:39;;;;;;;16.00;10.75;;;5.00;99.90;;;;;;5059417;28;20040;-72
2022/09/29 06:12:05;;;;;;;24.30;12.05;;;5.00;99.90;;;;;;5079365;28;20036;-72
2022/09/29 06:14:31;;;;;;;25.02;12.40;;;5.20;99.90;;;;;;5085630;28;20119;-73
2022/09/29 06:16:56;;;;;;;22.45;12.00;;;5.00;99.90;;;;;;5086400;28;20103;-73
2022/09/29 06:19:22;;;;;;;24.02;12.02;;;5.10;99.90;;;;;;5086416;28;20119;-71
2022/09/29 06:21:47;;;;;;;12.15;10.95;;;5.10;99.90;;;;;;5086013;28;20122;-71
2022/09/29 06:24:13;;;;;;;12.90;11.63;;;5.10;99.90;;;;;;5085087;28;20471;-73
2022/09/29 06:26:39;;;;;;;12.95;11.75;;;5.30;99.90;;;;;;5087505;28;20478;-74
2022/09/29 06:29:04;;;;;;;11.93;10.82;;;5.40;99.90;;;;;;5084678;28;20486;-75
2022/09/29 06:31:31;;;;;;;12.98;11.68;;;5.40;99.90;;;;;;5066739;28;20045;-74
2022/09/29 06:34:02;;;;;;;18.50;13.00;;;5.50;99.90;;;;;;5083781;28;20039;-72
2022/09/29 06:39:19;;;;;;;17.25;12.18;;;5.80;99.90;;;;;;5088870;28;20655;-75
2022/09/29 06:41:53;;;;;;;28.63;12.40;;;5.80;99.90;;;;;;5088376;28;20040;-71
2022/09/29 06:44:20;;;;;;;39.95;12.32;;;5.90;99.90;;;;;;5087606;28;20036;-71
2022/09/29 06:46:46;;;;;;;36.95;12.07;;;5.90;99.90;;;;;;5082527;28;20059;-71
2022/09/29 06:49:14;;;;;;;41.10;12.20;;;5.90;99.90;;;;;;5084540;28;20040;-72
2022/09/29 06:51:40;;;;;;;19.42;11.10;;;6.00;99.90;;;;;;5071342;28;20059;-72
2022/09/29 06:54:05;;;;;;;20.98;12.23;;;6.00;99.90;;;;;;5098645;28;20052;-72
2022/09/29 06:56:31;;;;;;;30.00;11.38;;;6.10;99.90;;;;;;5085286;28;20046;-72
2022/09/29 06:58:57;;;;;;;33.38;12.43;;;6.10;99.90;;;;;;5090873;28;20390;-73
2022/09/29 07:01:22;;;;;;;28.92;11.88;;;6.10;99.90;;;;;;5094582;28;20041;-71
2022/09/29 07:03:48;;;;;;;25.48;12.00;;;6.20;99.90;;;;;;5092154;28;20036;-71
2022/09/29 07:06:14;;;;;;;17.23;12.55;;;6.30;99.90;;;;;;5093055;28;20054;-70
2022/09/29 07:08:40;;;;;;;45.67;12.20;;;6.40;99.90;;;;;;5091417;28;20043;-70
2022/09/29 07:11:07;;;;;;;18.90;12.30;;;6.40;99.90;;;;;;5073793;28;20481;-73
2022/09/29 07:13:34;;;;;;;15.48;12.43;;;6.50;99.90;;;;;;5088828;28;20513;-71
2022/09/29 07:16:07;;;;;;;15.27;12.68;;;6.70;99.90;;;;;;5091458;28;20390;-71
2022/09/29 07:18:36;;;;;;;20.60;15.25;;;6.80;99.90;;;;;;5090747;28;20048;-71
2022/09/29 07:21:03;;;;;;;26.30;13.52;;;6.90;99.90;;;;;;5086439;28;20129;-71
2022/09/29 07:23:29;;;;;;;24.63;13.23;;;7.00;99.90;;;;;;5072906;28;20071;-70
2022/09/29 07:25:55;;;;;;;20.67;12.52;;;7.10;99.90;;;;;;5074135;28;20060;-71
2022/09/29 07:28:21;;;;;;;16.10;13.30;;;7.20;99.90;;;;;;5088966;28;20063;-72
2022/09/29 07:30:46;;;;;;;17.20;15.25;;;7.40;99.90;;;;;;5090252;28;20455;-70
2022/09/29 07:33:12;;;;;;;20.83;14.68;;;7.50;99.90;;;;;;5090351;28;20108;-71
2022/09/29 07:35:37;;;;;;;26.02;15.77;;;7.60;99.90;;;;;;5069830;28;20043;-71
2022/09/29 07:38:03;;;;;;;25.40;15.18;;;7.70;99.90;;;;;;5085093;28;20046;-71
2022/09/29 07:40:29;;;;;;;22.58;14.43;;;7.80;99.90;;;;;;5084891;28;20050;-70
2022/09/29 07:42:55;;;;;;;19.48;14.80;;;7.90;99.90;;;;;;5090522;28;20129;-71
2022/09/29 07:45:21;;;;;;;23.90;13.75;;;8.00;99.90;;;;;;5085197;28;20067;-71
2022/09/29 07:47:47;;;;;;;18.13;13.73;;;8.00;99.90;;;;;;5087520;28;20119;-71
2022/09/29 07:50:13;;;;;;;22.30;14.20;;;8.10;99.90;;;;;;5085487;28;20122;-71
2022/09/29 07:52:38;;;;;;;19.90;14.00;;;8.20;99.90;;;;;;5086360;28;20047;-71
2022/09/29 07:55:05;;;;;;;21.75;15.02;;;8.30;99.90;;;;;;5085869;28;20036;-70
2022/09/29 07:57:31;;;;;;;19.85;14.73;;;8.40;99.90;;;;;;5066213;28;20052;-70
2022/09/29 07:59:57;;;;;;;22.85;15.32;;;8.40;99.90;;;;;;5081273;28;22062;-72
2022/09/29 08:02:24;;;;;;;26.30;14.32;;;8.60;99.90;;;;;;5080715;28;21002;-71
2022/09/29 08:04:49;;;;;;;20.50;14.23;;;8.60;99.90;;;;;;5079841;28;20051;-71
2022/09/29 08:07:15;;;;;;;16.08;13.77;;;8.60;99.90;;;;;;5081829;28;20036;-71
2022/09/29 08:09:41;;;;;;;14.63;13.10;;;8.60;99.90;;;;;;5083458;28;20475;-71
2022/09/29 08:12:07;;;;;;;26.38;13.68;;;8.60;99.90;;;;;;5080843;28;20052;-71
2022/09/29 08:14:33;;;;;;;18.60;13.98;;;8.60;99.90;;;;;;5082855;28;20052;-71
2022/09/29 08:16:59;;;;;;;15.23;13.82;;;8.70;99.90;;;;;;5065443;28;20048;-71
2022/09/29 08:19:27;;;;;;;19.42;14.55;;;8.80;99.90;;;;;;5089314;28;20036;-71
2022/09/29 08:21:53;;;;;;;51.17;19.05;;;8.90;99.90;;;;;;5090933;28;20439;-71
2022/09/29 08:24:18;;;;;;;27.00;18.30;;;9.00;99.90;;;;;;5086257;28;20086;-70
2022/09/29 08:26:44;;;;;;;37.22;15.93;;;9.10;99.90;;;;;;5087971;28;20394;-70
2022/09/29 08:29:12;;;;;;;20.10;16.17;;;9.20;99.90;;;;;;5085754;28;20034;-71
2022/09/29 08:31:37;;;;;;;25.50;15.80;;;9.20;99.90;;;;;;5060931;28;20040;-70
2022/09/29 08:34:03;;;;;;;17.35;14.32;;;9.40;99.90;;;;;;5083814;28;20036;-71
2022/09/29 08:36:29;;;;;;;18.77;14.23;;;9.50;99.90;;;;;;5085912;28;20043;-70
2022/09/29 08:38:56;;;;;;;16.20;14.13;;;9.60;99.90;;;;;;5069977;28;20047;-71
2022/09/29 08:41:35;;;;;;;14.10;12.90;;;9.60;99.90;;;;;;5089941;28;20498;-70
2022/09/29 08:44:35;;;;;;;17.33;15.18;;;9.60;99.90;;;;;;5090855;28;20052;-71
2022/09/29 08:47:20;;;;;;;16.30;14.57;;;9.70;99.90;;;;;;5083719;28;20396;-71
2022/09/29 08:49:56;;;;;;;14.98;13.43;;;9.90;99.90;;;;;;5088269;28;20044;-71
2022/09/29 08:52:39;;;;;;;15.32;13.70;;;10.00;99.90;;;;;;5064581;28;20088;-71
2022/09/29 08:55:17;;;;;;;15.70;14.25;;;10.30;99.90;;;;;;5085444;28;20125;-72
2022/09/29 08:57:45;;;;;;;17.65;14.32;;;10.60;99.90;;;;;;5082830;28;20391;-71
2022/09/29 09:00:16;;;;;;;14.80;13.50;;;10.70;99.90;;;;;;5082432;28;20571;-71
2022/09/29 09:03:11;;;;;;;14.20;12.90;;;10.80;99.90;;;;;;5085265;28;20044;-71
2022/09/29 09:05:48;;;;;;;14.20;13.00;;;10.90;99.90;;;;;;5089792;28;20082;-71
2022/09/29 09:08:40;;;;;;;14.73;13.30;;;11.00;99.90;;;;;;5086276;28;20048;-72
2022/09/29 09:11:25;;;;;;;15.13;13.55;;;11.30;99.90;;;;;;5084831;28;20044;-72
2022/09/29 09:14:06;;;;;;;15.90;14.30;;;;;;;;;;5049050;28;20040;-72
2022/09/29 09:17:09;;;;;;;16.25;14.75;;;11.30;99.90;;;;;;5091238;28;20066;-71
2022/09/29 09:19:46;;;;;;;13.80;12.60;;;11.40;99.90;;;;;;4997180;28;20057;-72
2022/09/29 09:22:28;;;;;;;14.25;12.90;;;11.90;99.90;;;;;;4991896;28;20102;-71
2022/09/29 09:25:06;;;;;;;12.07;11.07;;;11.90;99.90;;;;;;4983363;28;20062;-71
2022/09/29 09:27:39;;;;;;;12.80;11.60;;;12.00;99.90;;;;;;4994195;28;20516;-71
2022/09/29 09:30:12;;;;;;;12.85;11.82;;;12.00;99.90;;;;;;4988380;28;20534;-71
2022/09/29 09:32:45;;;;;;;12.57;11.38;;;12.10;99.90;;;;;;4995157;28;20077;-71
2022/09/29 09:35:16;;;;;;;12.75;11.65;;;12.10;99.90;;;;;;4994254;28;20054;-73
2022/09/29 09:37:45;;;;;;;12.75;11.70;;;12.20;99.90;;;;;;4976916;28;20043;-71
2022/09/29 09:40:14;;;;;;;11.15;10.18;;;12.40;99.90;;;;;;4995630;28;20454;-72
2022/09/29 09:42:43;;;;;;;11.30;10.27;;;12.70;99.90;;;;;;4993221;28;20053;-74
2022/09/29 09:45:25;;;;;;;11.27;10.38;;;12.90;99.90;;;;;;4996104;28;20069;-73
2022/09/29 09:48:02;;;;;;;10.73;9.70;;;12.90;99.90;;;;;;4974900;28;20061;-73
2022/09/29 09:50:28;;;;;;;12.77;11.68;;;12.90;99.90;;;;;;4984583;28;20145;-73
2022/09/29 09:53:18;;;;;;;11.90;10.90;;;12.80;99.90;;;;;;4994703;28;20042;-73
2022/09/29 09:55:50;;;;;;;11.15;10.25;;;13.00;99.90;;;;;;5060908;28;20344;-74
2022/09/29 09:58:54;;;;;;;12.45;11.45;;;13.00;99.90;;;;;;5082939;28;20044;-72
2022/09/29 10:01:21;;;;;;;11.45;10.45;;;13.00;99.90;;;;;;5036735;28;20051;-71
2022/09/29 10:03:46;;;;;;;12.88;11.65;;;13.00;99.90;;;;;;5081345;28;20127;-71
2022/09/29 10:06:12;;;;;;;13.50;12.35;;;12.90;99.90;;;;;;5084157;28;20119;-72
2022/09/29 10:08:41;;;;;;;13.48;12.32;;;12.80;99.90;;;;;;5082147;28;20067;-70
2022/09/29 10:11:23;;;;;;;12.75;11.65;;;12.80;99.90;;;;;;5080227;28;20044;-72
2022/09/29 10:13:57;;;;;;;13.30;12.18;;;12.70;99.90;;;;;;5080657;28;20093;-71
2022/09/29 10:16:40;;;;;;;13.10;11.90;;;12.70;99.90;;;;;;5083517;28;20032;-71
2022/09/29 10:19:06;;;;;;;13.43;12.23;;;12.50;99.90;;;;;;5082946;28;20036;-71
2022/09/29 10:21:31;;;;;;;14.35;12.93;;;12.50;99.90;;;;;;5046763;28;20563;-71
2022/09/29 10:24:01;;;;;;;15.18;13.77;;;12.50;99.90;;;;;;5064336;28;20575;-72
2022/09/29 10:26:33;;;;;;;14.38;13.07;;;12.50;99.90;;;;;;5085124;28;20044;-72
2022/09/29 10:29:34;;;;;;;14.38;13.07;;;12.60;99.90;;;;;;5088853;28;20731;-72
2022/09/29 10:32:11;;;;;;;14.50;13.30;;;12.70;99.90;;;;;;5083370;28;20040;-71
2022/09/29 10:34:41;;;;;;;13.50;12.23;;;12.90;99.90;;;;;;5087399;28;20130;-71
2022/09/29 10:37:34;;;;;;;14.52;13.07;;;13.00;99.90;;;;;;5084384;28;20036;-71
2022/09/29 10:40:16;;;;;;;15.07;13.68;;;13.00;99.90;;;;;;5087702;28;20044;-71
2022/09/29 10:42:49;;;;;;;15.60;14.15;;;13.00;99.90;;;;;;5085012;28;20056;-72
2022/09/29 10:45:23;;;;;;;15.40;13.90;;;13.10;99.90;;;;;;5086177;28;20073;-71
2022/09/29 10:48:15;;;;;;;16.13;14.70;;;13.10;99.90;;;;;;5084252;28;20048;-71
2022/09/29 10:50:49;;;;;;;16.60;15.07;;;13.20;99.90;;;;;;5082539;28;20399;-72
2022/09/29 10:53:17;;;;;;;18.60;16.65;;;13.30;99.90;;;;;;5084093;28;20450;-72
2022/09/29 10:55:52;;;;;;;19.05;17.25;;;13.40;99.90;;;;;;5082472;28;20059;-71
2022/09/29 10:58:29;;;;;;;19.58;17.67;;;13.40;99.90;;;;;;5085618;28;20410;-72
2022/09/29 11:01:06;;;;;;;18.88;17.13;;;;;;;;;;5092542;28;20048;-72
2022/09/29 11:03:33;;;;;;;19.60;17.60;;;13.60;99.90;;;;;;5084168;28;20056;-71
2022/09/29 11:06:03;;;;;;;20.92;19.02;;;13.70;99.90;;;;;;5087024;28;20118;-71
2022/09/29 11:08:32;;;;;;;20.80;18.80;;;13.90;99.90;;;;;;5086904;28;20071;-70
2022/09/29 11:11:21;;;;;;;20.13;16.80;;;14.00;99.90;;;;;;5085073;28;20561;-72
2022/09/29 11:13:47;;;;;;;17.75;16.10;;;14.00;99.90;;;;;;5086904;28;20040;-72
2022/09/29 11:16:16;;;;;;;18.13;16.42;;;14.10;99.90;;;;;;5087771;28;20055;-74
2022/09/29 11:18:49;;;;;;;18.00;16.27;;;14.10;99.90;;;;;;5089037;28;20044;-72
2022/09/29 11:21:41;;;;;;;15.68;14.27;;;14.20;99.90;;;;;;5066671;28;20040;-75
2022/09/29 11:24:35;;;;;;;15.90;14.50;;;14.30;99.90;;;;;;5088030;28;20508;-79
2022/09/29 11:27:14;;;;;;;16.08;14.57;;;14.30;99.90;;;;;;5071898;28;20062;-73
2022/09/29 11:30:09;;;;;;;16.83;15.23;;;14.30;99.90;;;;;;5084327;28;20048;-73
2022/09/29 11:32:48;;;;;;;17.48;15.75;;;14.40;99.90;;;;;;5040405;28;20601;-74
2022/09/29 11:35:40;;;;;;;16.35;14.65;;;14.40;99.90;;;;;;5082063;28;20570;-74
2022/09/29 11:38:23;;;;;;;17.05;15.48;;;14.60;99.90;;;;;;5096059;28;20067;-72
2022/09/29 11:41:09;;;;;;;16.60;14.82;;;14.60;99.90;;;;;;5081844;28;20047;-72
2022/09/29 11:43:44;;;;;;;15.63;14.07;;;14.60;99.90;;;;;;5084702;28;20055;-73
2022/09/29 11:46:19;;;;;;;15.90;14.48;;;14.70;99.90;;;;;;5076142;28;20044;-72
2022/09/29 11:49:22;;;;;;;15.05;13.65;;;14.70;99.90;;;;;;5094944;28;20448;-72
2022/09/29 11:52:27;;;;;;;14.85;13.35;;;14.80;99.90;;;;;;5081799;28;20121;-72
2022/09/29 11:55:26;;;;;;;16.95;15.25;;;14.80;99.90;;;;;;5095402;28;20040;-73
2022/09/29 11:58:07;;;;;;;12.02;10.82;;;14.80;99.90;;;;;;5091477;28;20157;-73
2022/09/29 12:01:00;;;;;;;11.85;10.75;;;14.90;99.90;;;;;;5084348;28;20044;-72
2022/09/29 12:04:14;;;;;;;11.15;10.02;;;15.00;99.90;;;;;;5071200;28;20076;-73
2022/09/29 12:06:53;;;;;;;10.77;9.77;;;15.10;99.90;;;;;;5082633;28;20494;-73
2022/09/29 12:09:34;;;;;;;10.05;9.05;;;15.20;99.90;;;;;;5082451;28;20040;-73
2022/09/29 12:12:32;;;;;;;10.27;9.38;;;15.20;99.90;;;;;;5086083;28;20051;-72
2022/09/29 12:15:22;;;;;;;11.05;10.05;;;15.20;99.90;;;;;;5084082;28;20075;-72
2022/09/29 12:17:54;;;;;;;10.15;9.20;;;15.20;99.90;;;;;;5080645;28;20114;-72
2022/09/29 12:20:28;;;;;;;10.15;8.73;;;15.30;99.90;;;;;;5094837;28;20123;-72
2022/09/29 12:22:59;;;;;;;10.65;9.75;;;15.20;99.90;;;;;;5073062;28;20067;-72
2022/09/29 12:25:27;;;;;;;12.10;10.88;;;15.20;99.90;;;;;;5082026;28;20134;-72
2022/09/29 12:28:00;;;;;;;10.10;9.10;;;15.30;99.90;;;;;;5075204;28;20044;-73
2022/09/29 12:30:28;;;;;;;10.13;9.20;;;15.40;99.90;;;;;;5075012;28;20116;-72
2022/09/29 12:33:12;;;;;;;9.73;8.73;;;15.30;99.90;;;;;;5094033;28;20702;-74
2022/09/29 12:36:42;;;;;;;8.50;7.68;;;15.40;99.90;;;;;;5065721;28;20041;-72
2022/09/29 12:39:00;;;;;;;12.80;9.55;;;15.40;99.90;;;;;;5056808;28;20459;-73
2022/09/29 12:41:33;;;;;;;9.63;8.73;;;15.40;99.90;;;;;;5079906;28;20055;-73
2022/09/29 12:44:16;;;;;;;9.50;8.60;;;15.60;99.90;;;;;;5095249;28;20494;-72
2022/09/29 12:46:55;;;;;;;7.35;6.50;;;15.60;99.90;;;;;;5086744;28;20051;-73
2022/09/29 12:49:27;;;;;;;8.48;6.68;;;15.70;99.90;;;;;;5089400;28;20391;-72
2022/09/29 12:51:53;;;;;;;11.65;7.65;;;15.80;99.90;;;;;;5086910;28;20048;-73
2022/09/29 12:54:43;;;;;;;9.10;8.30;;;15.80;99.90;;;;;;5087590;28;20035;-74
2022/09/29 12:57:15;;;;;;;10.10;8.10;;;15.80;99.90;;;;;;5079244;28;20427;-72
2022/09/29 12:59:51;;;;;;;7.40;6.70;;;15.80;99.90;;;;;;5093751;28;20043;-73
2022/09/29 13:02:35;;;;;;;7.47;6.70;;;15.90;99.90;;;;;;5089886;28;20064;-72
2022/09/29 13:05:19;;;;;;;7.10;6.50;;;16.00;99.90;;;;;;5087079;28;20044;-73